createdAt,value
2019-02-12T01:57:35.101Z,72.18
2019-02-12T02:00:05.783Z,71.13
2019-02-12T02:02:34.736Z,70.35
2019-02-12T02:05:04.278Z,71.60
2019-02-12T02:07:34.028Z,71.82
2019-02-12T02:10:03.249Z,70.97
2019-02-12T02:12:32.963Z,70.24
2019-02-12T02:15:02.623Z,69.77
2019-02-12T02:17:31.680Z,69.88
2019-02-12T02:20:02.077Z,70.05
2019-02-12T02:22:31.060Z,69.22
2019-02-12T02:25:00.965Z,69.19
2019-02-12T02:27:29.985Z,69.15
2019-02-12T02:30:00.385Z,67.85
2019-02-12T02:32:30.835Z,67.24
2019-02-12T02:35:00.450Z,66.07
2019-02-12T02:37:29.337Z,66.76
2019-02-12T02:39:58.712Z,67.37
2019-02-12T02:42:28.970Z,67.37
2019-02-12T02:44:58.146Z,67.15
2019-02-12T02:47:27.180Z,66.34
2019-02-12T02:49:56.094Z,66.82
2019-02-12T02:52:25.149Z,67.09
2019-02-12T02:54:54.537Z,67.27
2019-02-12T02:57:24.048Z,67.82
2019-02-12T02:59:53.137Z,67.47
2019-02-12T03:02:22.550Z,67.35
2019-02-12T03:04:52.663Z,67.79
2019-02-12T03:07:22.055Z,67.25
2019-02-12T03:09:51.165Z,67.61
2019-02-12T03:12:20.697Z,68.09
2019-02-12T03:14:49.615Z,67.21
2019-02-12T03:17:18.462Z,68.09
2019-02-12T03:19:48.119Z,67.42
2019-02-12T03:22:17.856Z,66.97
2019-02-12T03:24:47.757Z,66.92
2019-02-12T03:27:16.787Z,66.30
2019-02-12T03:29:45.986Z,67.63
2019-02-12T03:32:15.308Z,66.37
2019-02-12T03:34:44.105Z,66.61
2019-02-12T03:37:13.189Z,67.49
2019-02-12T03:39:42.171Z,67.53
2019-02-12T03:42:11.199Z,68.17
2019-02-12T03:44:40.349Z,67.39
2019-02-12T03:47:10.167Z,66.33
2019-02-12T03:49:39.458Z,65.04
2019-02-12T03:52:12.985Z,65.61
2019-02-12T03:54:37.573Z,64.58
2019-02-12T03:57:06.659Z,64.64
2019-02-12T03:59:36.480Z,64.04
2019-02-12T04:02:05.617Z,63.55
2019-02-12T04:04:34.592Z,64.03
2019-02-12T04:07:03.916Z,62.59
2019-02-12T04:09:32.976Z,63.14
2019-02-12T04:12:01.854Z,63.06
2019-02-12T04:14:30.848Z,63.86
2019-02-12T04:16:59.643Z,64.00
2019-02-12T04:19:28.631Z,63.31
2019-02-12T04:21:57.717Z,63.44
2019-02-12T04:24:26.632Z,64.97
2019-02-12T04:26:55.609Z,66.85
2019-02-12T04:29:24.618Z,66.19
2019-02-12T04:31:53.948Z,66.56
2019-02-12T04:34:23.027Z,64.98
2019-02-12T04:36:52.101Z,65.70
2019-02-12T04:39:21.217Z,64.57
2019-02-12T04:41:50.768Z,62.99
2019-02-12T04:44:19.788Z,62.52
2019-02-12T04:46:49.576Z,63.02
2019-02-12T04:49:18.563Z,61.93
2019-02-12T04:51:47.583Z,61.72
2019-02-12T04:54:16.793Z,61.37
2019-02-12T04:56:45.829Z,61.77
2019-02-12T04:59:14.882Z,61.05
2019-02-12T05:01:44.014Z,61.10
2019-02-12T05:04:13.900Z,61.14
2019-02-12T05:06:43.094Z,61.47
2019-02-12T05:09:15.285Z,61.26
2019-02-12T05:11:47.365Z,61.02
2019-02-12T05:14:16.446Z,60.77
2019-02-12T05:16:45.370Z,61.50
2019-02-12T05:19:14.593Z,61.22
2019-02-12T05:21:44.460Z,63.38
2019-02-12T05:24:13.928Z,61.84
2019-02-12T05:26:42.914Z,61.43
2019-02-12T05:29:11.953Z,61.33
2019-02-12T05:31:40.884Z,62.52
2019-02-12T05:34:09.815Z,61.03
2019-02-12T05:36:38.851Z,61.16
2019-02-12T05:39:07.928Z,61.79
2019-02-12T05:41:37.626Z,61.34
2019-02-12T05:44:06.499Z,62.16
2019-02-12T05:46:35.344Z,62.18
2019-02-12T05:49:04.563Z,61.62
2019-02-12T05:51:33.717Z,61.21
2019-02-12T05:54:02.790Z,61.34
2019-02-12T05:56:32.193Z,61.20
2019-02-12T05:59:01.216Z,60.56
2019-02-12T06:01:30.275Z,60.88
2019-02-12T06:03:59.159Z,60.77
2019-02-12T06:06:28.319Z,61.89
2019-02-12T06:08:57.870Z,60.27
2019-02-12T06:11:27.801Z,60.75
2019-02-12T06:13:57.345Z,60.41
2019-02-12T06:16:26.813Z,60.90
2019-02-12T06:18:56.478Z,60.57
2019-02-12T06:21:25.851Z,60.35
2019-02-12T06:23:54.824Z,59.48
2019-02-12T06:26:23.900Z,59.92
2019-02-12T06:28:53.011Z,59.38
2019-02-12T06:31:22.681Z,60.01
2019-02-12T06:33:51.713Z,59.18
2019-02-12T06:36:20.730Z,59.38
2019-02-12T06:38:49.579Z,59.35
2019-02-12T06:41:19.571Z,59.36
2019-02-12T06:43:50.641Z,59.09
2019-02-12T06:46:19.841Z,59.07
2019-02-12T06:48:49.447Z,59.10
2019-02-12T06:51:18.683Z,58.89
2019-02-12T06:53:47.632Z,59.17
2019-02-12T06:56:17.836Z,59.27
2019-02-12T06:58:46.792Z,58.88
2019-02-12T07:01:15.640Z,58.31
2019-02-12T07:03:52.976Z,58.92
2019-02-12T07:07:30.078Z,58.36
2019-02-12T07:10:06.298Z,59.27
2019-02-12T07:13:45.572Z,58.95
2019-02-12T07:16:23.327Z,59.72
2019-02-12T07:19:17.405Z,59.27
2019-02-12T07:21:56.210Z,59.86
2019-02-12T07:24:35.272Z,59.36
2019-02-12T07:28:20.026Z,60.40
2019-02-12T07:31:02.155Z,59.71
2019-02-12T07:34:16.668Z,58.95
2019-02-12T07:37:07.399Z,58.97
2019-02-12T07:42:01.336Z,59.28
2019-02-12T07:45:38.656Z,59.42
2019-02-12T07:48:59.085Z,58.94
2019-02-12T07:51:58.031Z,59.16
2019-02-12T07:54:36.519Z,58.85
2019-02-12T07:59:34.120Z,58.21
2019-02-12T08:02:46.532Z,58.60
2019-02-12T08:05:31.076Z,59.18
2019-02-12T08:08:11.036Z,58.30
2019-02-12T08:10:52.334Z,59.73
2019-02-12T08:13:32.859Z,59.69
2019-02-12T08:16:27.759Z,58.27
2019-02-12T08:19:36.852Z,58.25
2019-02-12T08:23:21.141Z,58.01
2019-02-12T08:25:59.302Z,57.68
2019-02-12T08:28:40.731Z,56.85
2019-02-12T08:31:18.718Z,56.87
2019-02-12T08:34:08.431Z,56.00
2019-02-12T08:37:18.144Z,55.28
2019-02-12T08:40:06.616Z,56.05
2019-02-12T08:43:01.728Z,55.70
2019-02-12T08:46:45.047Z,56.13
2019-02-12T08:49:27.686Z,55.25
2019-02-12T08:54:20.863Z,54.97
2019-02-12T08:57:46.612Z,55.00
2019-02-12T09:00:27.376Z,54.46
2019-02-12T09:03:08.465Z,54.62
2019-02-12T09:05:49.109Z,53.83
2019-02-12T09:08:30.887Z,54.26
2019-02-12T09:11:41.408Z,54.87
2019-02-12T09:14:19.201Z,53.96
2019-02-12T09:17:09.756Z,53.38
2019-02-12T09:19:53.646Z,52.88
2019-02-12T09:22:41.126Z,53.66
2019-02-12T09:26:17.428Z,53.05
2019-02-12T09:29:01.209Z,52.26
2019-02-12T09:32:11.143Z,51.33
2019-02-12T09:35:06.731Z,51.44
2019-02-12T09:37:52.303Z,52.96
2019-02-12T09:40:31.332Z,52.22
2019-02-12T09:43:48.999Z,52.56
2019-02-12T09:46:33.811Z,52.45
2019-02-12T09:49:14.520Z,51.57
2019-02-12T09:52:36.257Z,50.83
2019-02-12T09:55:14.008Z,53.05
2019-02-12T09:57:55.632Z,51.59
2019-02-12T10:01:41.703Z,51.23
2019-02-12T10:04:29.106Z,49.85
2019-02-12T10:07:12.929Z,49.41
2019-02-12T10:09:58.054Z,49.25
2019-02-12T10:12:36.959Z,49.21
2019-02-12T10:15:31.930Z,49.37
2019-02-12T10:20:17.235Z,49.67
2019-02-12T10:23:18.624Z,49.87
2019-02-12T10:25:55.186Z,50.15
2019-02-12T10:28:35.138Z,51.03
2019-02-12T10:31:16.517Z,51.35
2019-02-12T10:33:46.641Z,52.74
2019-02-12T10:36:16.117Z,52.16
2019-02-12T10:38:45.143Z,52.06
2019-02-12T10:41:14.155Z,52.24
2019-02-12T10:43:43.287Z,51.64
2019-02-12T10:46:12.764Z,50.96
2019-02-12T10:48:41.874Z,50.99
2019-02-12T10:51:10.751Z,51.02
2019-02-12T10:53:40.068Z,50.08
2019-02-12T10:56:09.712Z,50.41
2019-02-12T10:58:39.152Z,49.00
2019-02-12T11:01:08.326Z,50.13
2019-02-12T11:03:37.366Z,50.88
2019-02-12T11:06:06.484Z,52.04
2019-02-12T11:08:35.475Z,52.26
2019-02-12T11:11:05.474Z,51.84
2019-02-12T11:13:35.339Z,53.23
2019-02-12T11:16:04.895Z,52.71
2019-02-12T11:18:34.067Z,52.71
2019-02-12T11:21:11.525Z,52.37
2019-02-12T11:23:33.161Z,52.76
2019-02-12T11:26:02.256Z,52.06
2019-02-12T11:28:31.119Z,51.28
2019-02-12T11:31:00.195Z,50.79
2019-02-12T11:33:29.640Z,49.70
2019-02-12T11:35:58.857Z,50.47
2019-02-12T11:38:28.054Z,51.27
2019-02-12T11:40:57.906Z,50.33
2019-02-12T11:43:27.283Z,50.56
2019-02-12T11:45:56.367Z,51.47
2019-02-12T11:48:25.219Z,50.05
2019-02-12T11:50:54.268Z,50.11
2019-02-12T11:53:23.916Z,51.14
2019-02-12T11:55:53.979Z,50.06
2019-02-12T11:58:22.994Z,50.81
2019-02-12T12:01:00.279Z,50.89
2019-02-12T12:03:30.507Z,52.05
2019-02-12T12:05:59.384Z,51.30
2019-02-12T12:08:28.875Z,50.80
2019-02-12T12:10:58.408Z,51.14
2019-02-12T12:13:27.504Z,51.14
2019-02-12T12:15:56.539Z,51.32
2019-02-12T12:18:25.938Z,51.10
2019-02-12T12:20:55.035Z,52.03
2019-02-12T12:23:24.701Z,52.82
2019-02-12T12:25:54.319Z,52.21
2019-02-12T12:28:23.351Z,52.23
2019-02-12T12:30:52.412Z,51.43
2019-02-12T12:33:21.920Z,49.78
2019-02-12T12:35:50.986Z,50.79
2019-02-12T12:38:19.924Z,51.33
2019-02-12T12:40:49.079Z,51.30
2019-02-12T12:43:18.781Z,51.34
2019-02-12T12:45:48.795Z,52.65
2019-02-12T12:48:18.214Z,52.75
2019-02-12T12:50:47.203Z,53.84
2019-02-12T12:53:17.496Z,53.70
2019-02-12T12:55:47.053Z,53.89
2019-02-12T12:58:16.743Z,52.16
2019-02-12T13:00:46.435Z,52.18
2019-02-12T13:03:16.404Z,51.08
2019-02-12T13:05:46.391Z,52.14
2019-02-12T13:08:15.708Z,52.78
2019-02-12T13:10:45.213Z,53.40
2019-02-12T13:13:14.807Z,53.70
2019-02-12T13:15:44.930Z,53.76
2019-02-12T13:18:14.105Z,53.40
2019-02-12T13:20:43.557Z,53.43
2019-02-12T13:23:12.419Z,53.83
2019-02-12T13:25:41.507Z,53.99
2019-02-12T13:28:10.524Z,54.43
2019-02-12T13:30:39.680Z,55.28
2019-02-12T13:33:08.920Z,54.22
2019-02-12T13:35:38.369Z,54.31
2019-02-12T13:38:07.404Z,54.76
2019-02-12T13:40:36.867Z,54.86
2019-02-12T13:43:06.755Z,54.96
2019-02-12T13:45:35.824Z,55.37
2019-02-12T13:48:04.852Z,55.21
2019-02-12T13:50:34.749Z,54.91
2019-02-12T13:53:03.978Z,54.81
2019-02-12T13:55:33.788Z,55.78
2019-02-12T13:58:03.266Z,55.53
2019-02-12T14:00:32.178Z,54.72
2019-02-12T14:03:01.381Z,55.29
2019-02-12T14:05:30.457Z,55.38
2019-02-12T14:07:59.199Z,55.58
2019-02-12T14:10:28.175Z,56.16
2019-02-12T14:12:57.406Z,56.08
2019-02-12T14:15:26.740Z,55.96
2019-02-12T14:17:56.189Z,55.65
2019-02-12T14:20:25.180Z,55.87
2019-02-12T14:22:54.593Z,55.81
2019-02-12T14:25:25.555Z,56.10
2019-02-12T14:27:53.126Z,55.47
2019-02-12T14:30:23.147Z,55.61
2019-02-12T14:32:52.205Z,55.88
2019-02-12T14:35:21.947Z,55.94
2019-02-12T14:37:51.663Z,55.78
2019-02-12T14:40:21.091Z,55.77
2019-02-12T14:42:50.191Z,56.19
2019-02-12T14:45:19.860Z,56.19
2019-02-12T14:47:48.751Z,56.21
2019-02-12T14:50:17.796Z,56.33
2019-02-12T14:52:46.852Z,56.90
2019-02-12T14:55:16.401Z,56.49
2019-02-12T14:57:45.463Z,57.52
2019-02-12T15:00:14.737Z,57.33
2019-02-12T15:02:43.777Z,56.90
2019-02-12T15:05:13.121Z,56.78
2019-02-12T15:07:41.984Z,57.41
2019-02-12T15:10:11.903Z,57.03
2019-02-12T15:12:40.962Z,56.96
2019-02-12T15:15:10.194Z,57.76
2019-02-12T15:17:40.026Z,57.28
2019-02-12T15:20:09.429Z,57.92
2019-02-12T15:22:38.651Z,58.38
2019-02-12T15:25:08.102Z,58.53
2019-02-12T15:27:37.349Z,58.18
2019-02-12T15:30:08.512Z,58.09
2019-02-12T15:32:37.649Z,57.63
2019-02-12T15:35:07.743Z,57.68
2019-02-12T15:37:36.862Z,58.02
2019-02-12T15:40:07.321Z,57.85
2019-02-12T15:42:37.424Z,58.35
2019-02-12T15:45:07.178Z,58.56
2019-02-12T15:47:36.216Z,57.93
2019-02-12T15:50:05.715Z,58.71
2019-02-12T15:52:35.883Z,58.56
2019-02-12T15:55:05.522Z,58.90
2019-02-12T15:57:34.594Z,58.64
2019-02-12T16:00:04.256Z,58.30
2019-02-12T16:02:35.902Z,58.95
2019-02-12T16:05:03.057Z,59.19
2019-02-12T16:07:32.282Z,58.92
2019-02-12T16:10:01.633Z,59.31
2019-02-12T16:12:32.528Z,59.04
2019-02-12T16:15:01.791Z,60.16
2019-02-12T16:17:30.905Z,59.82
2019-02-12T16:20:00.238Z,61.08
2019-02-12T16:22:29.613Z,59.62
2019-02-12T16:24:58.885Z,59.46
2019-02-12T16:27:28.220Z,60.14
2019-02-12T16:29:57.950Z,60.16
2019-02-12T16:32:27.839Z,60.01
2019-02-12T16:34:56.908Z,59.83
2019-02-12T16:37:26.167Z,59.50
2019-02-12T16:39:55.077Z,59.61
2019-02-12T16:42:24.687Z,60.14
2019-02-12T16:44:53.601Z,60.28
2019-02-12T16:47:23.184Z,60.39
2019-02-12T16:49:52.182Z,60.50
2019-02-12T16:52:21.593Z,61.27
2019-02-12T16:54:51.725Z,60.31
2019-02-12T16:57:21.151Z,60.33
2019-02-12T16:59:50.041Z,60.55
2019-02-12T17:02:19.785Z,60.78
2019-02-12T17:04:48.929Z,60.39
2019-02-12T17:07:18.524Z,60.53
2019-02-12T17:09:52.366Z,60.06
2019-02-12T17:12:17.218Z,60.69
2019-02-12T17:14:45.928Z,60.86
2019-02-12T17:17:15.138Z,60.85
2019-02-12T17:19:43.972Z,61.03
2019-02-12T17:22:13.090Z,61.12
2019-02-12T17:24:42.446Z,60.75
2019-02-12T17:27:11.205Z,60.31
2019-02-12T17:29:40.923Z,60.06
2019-02-12T17:32:10.625Z,61.82
2019-02-12T17:34:39.864Z,61.87
2019-02-12T17:37:08.710Z,60.08
2019-02-12T17:39:38.715Z,60.59
2019-02-12T17:42:08.022Z,63.02
2019-02-12T17:44:37.334Z,61.53
2019-02-12T17:47:06.550Z,60.47
2019-02-12T17:49:36.432Z,60.94
2019-02-12T17:52:06.850Z,60.94
2019-02-12T17:54:35.802Z,61.20
2019-02-12T17:57:05.046Z,60.59
2019-02-12T17:59:33.943Z,60.72
2019-02-12T18:02:02.930Z,60.69
2019-02-12T18:04:31.842Z,60.65
2019-02-12T18:07:01.338Z,60.97
2019-02-12T18:09:30.257Z,60.94
2019-02-12T18:12:00.314Z,61.48
2019-02-12T18:14:29.837Z,61.54
2019-02-12T18:16:59.656Z,61.42
2019-02-12T18:19:29.051Z,60.74
2019-02-12T18:21:58.073Z,60.75
2019-02-12T18:27:06.824Z,61.14
2019-02-12T18:29:36.992Z,61.26
2019-02-12T18:32:05.318Z,60.57
2019-02-12T18:34:35.044Z,60.78
2019-02-12T18:37:04.955Z,60.37
2019-02-12T18:39:33.968Z,60.53
2019-02-12T18:42:05.854Z,60.46
2019-02-12T18:44:35.896Z,61.47
2019-02-12T18:47:05.400Z,60.47
2019-02-12T18:49:34.892Z,60.52
2019-02-12T18:52:04.410Z,61.24
2019-02-12T18:54:33.893Z,61.63
2019-02-12T18:57:04.787Z,61.02
2019-02-12T18:59:34.961Z,61.43
2019-02-12T19:02:03.919Z,61.61
2019-02-12T19:04:33.070Z,62.02
2019-02-12T19:07:02.105Z,61.75
2019-02-12T19:09:32.784Z,61.69
2019-02-12T19:12:05.832Z,61.20
2019-02-12T19:14:35.004Z,61.36
2019-02-12T19:17:04.165Z,61.32
2019-02-12T19:19:33.215Z,61.17
2019-02-12T19:22:02.406Z,61.50
2019-02-12T19:24:31.378Z,61.39
2019-02-12T19:27:00.281Z,61.70
2019-02-12T19:29:29.772Z,61.92
2019-02-12T19:31:59.493Z,61.77
2019-02-12T19:34:27.803Z,61.56
2019-02-12T19:36:57.372Z,61.56
2019-02-12T19:39:26.475Z,62.75
2019-02-12T19:42:02.313Z,62.46
2019-02-12T19:44:31.196Z,62.78
2019-02-12T19:47:01.543Z,63.01
2019-02-12T19:49:30.355Z,62.79
2019-02-12T19:51:59.466Z,63.42
2019-02-12T19:54:29.469Z,63.21
2019-02-12T19:56:58.774Z,63.54
2019-02-12T19:59:29.948Z,63.39
2019-02-12T20:01:58.942Z,63.52
2019-02-12T20:04:28.358Z,63.41
2019-02-12T20:06:57.178Z,63.58
2019-02-12T20:09:26.115Z,64.61
2019-02-12T20:11:55.089Z,64.03
2019-02-12T20:14:24.019Z,63.77
2019-02-12T20:16:52.958Z,64.41
2019-02-12T20:19:22.581Z,65.33
2019-02-12T20:21:51.655Z,64.82
2019-02-12T20:24:20.445Z,64.12
2019-02-12T20:26:51.184Z,65.03
2019-02-12T20:29:20.078Z,65.13
2019-02-12T20:31:48.783Z,65.23
2019-02-12T20:34:17.680Z,65.30
2019-02-12T20:36:46.791Z,65.43
2019-02-12T20:39:15.835Z,65.50
2019-02-12T20:41:46.493Z,65.35
2019-02-12T20:44:16.131Z,65.61
2019-02-12T20:46:44.975Z,64.89
2019-02-12T20:49:13.878Z,65.03
2019-02-12T20:51:42.649Z,64.99
2019-02-12T20:54:11.344Z,64.99
2019-02-12T20:56:40.524Z,64.63
2019-02-12T20:59:09.744Z,64.19
2019-02-12T21:01:38.757Z,64.38
2019-02-12T21:04:08.247Z,64.18
2019-02-12T21:06:37.134Z,64.35
2019-02-12T21:09:07.320Z,64.69
2019-02-12T21:11:36.268Z,64.55
2019-02-12T21:14:05.585Z,64.83
2019-02-12T21:16:34.432Z,64.98
2019-02-12T21:19:03.628Z,64.83
2019-02-12T21:21:33.046Z,64.93
2019-02-12T21:24:02.070Z,65.28
2019-02-12T21:26:32.003Z,65.13
2019-02-12T21:29:00.095Z,65.29
2019-02-12T21:31:28.984Z,65.40
2019-02-12T21:33:57.863Z,65.56
2019-02-12T21:36:26.676Z,65.71
2019-02-12T21:38:55.807Z,65.64
2019-02-12T21:41:25.652Z,66.07
2019-02-12T21:43:54.498Z,65.92
2019-02-12T21:46:23.603Z,65.89
2019-02-12T21:48:53.331Z,65.79
2019-02-12T21:51:22.688Z,65.85
2019-02-12T21:53:51.490Z,66.10
2019-02-12T21:56:20.617Z,65.64
2019-02-12T21:58:49.724Z,65.97
2019-02-12T22:01:18.662Z,65.82
2019-02-12T22:03:47.444Z,65.51
2019-02-12T22:06:16.356Z,66.11
2019-02-12T22:08:45.252Z,65.78
2019-02-12T22:11:14.371Z,64.92
2019-02-12T22:13:43.855Z,64.87
2019-02-12T22:16:13.364Z,64.01
2019-02-12T22:18:42.312Z,64.05
2019-02-12T22:21:11.923Z,64.20
2019-02-12T22:23:40.949Z,64.15
2019-02-12T22:26:10.291Z,63.87
2019-02-12T22:28:39.352Z,63.04
2019-02-12T22:31:09.002Z,63.52
2019-02-12T22:33:37.879Z,63.63
2019-02-12T22:36:07.151Z,64.21
2019-02-12T22:38:36.259Z,63.89
2019-02-12T22:41:05.200Z,64.25
2019-02-12T22:43:34.642Z,64.53
2019-02-12T22:46:04.036Z,63.74
2019-02-12T22:48:33.595Z,62.88
2019-02-12T22:51:02.657Z,63.43
2019-02-12T22:53:32.743Z,63.29
2019-02-12T22:56:01.965Z,63.05
2019-02-12T22:58:31.343Z,62.19
2019-02-12T23:01:05.484Z,62.32
2019-02-12T23:03:35.089Z,62.25
2019-02-12T23:06:04.118Z,62.07
2019-02-12T23:08:34.435Z,61.93
2019-02-12T23:11:04.009Z,62.42
2019-02-12T23:13:33.736Z,62.32
2019-02-12T23:16:03.721Z,62.68
2019-02-12T23:18:32.838Z,62.25
2019-02-12T23:21:02.184Z,62.71
2019-02-12T23:23:31.466Z,62.99
2019-02-12T23:26:00.945Z,62.73
2019-02-12T23:28:30.646Z,62.89
2019-02-12T23:30:59.689Z,62.84
2019-02-12T23:33:28.744Z,62.97
2019-02-12T23:35:57.947Z,63.30
2019-02-12T23:38:27.120Z,63.21
2019-02-12T23:40:55.821Z,63.32
2019-02-12T23:43:25.551Z,63.70
2019-02-12T23:45:57.215Z,64.00
2019-02-12T23:48:24.564Z,64.29
2019-02-12T23:50:53.547Z,64.43
2019-02-12T23:53:22.272Z,64.86
2019-02-12T23:55:51.705Z,64.59
2019-02-12T23:58:20.628Z,65.04
